Pearces, Michigan
Current Conditions -  °F | °C
As of 8:35 AM on Friday 28 Nov 2014 (Local Time) from KOZW Reporting Station
Broken Clouds Broken Clouds  
Wind Chill: 18°   Ceiling: 12000
Heat Index: 18°   Visibility: 10mi
Dew Point: 12°   Wind: 3mph
Humidity: 78%   Direction: 180°S
Pressure: 30.29"   Gusts: NA
Location:  42.7°N, 83.9305°W
Report Text: KOZW 281335Z AUTO 18003KT 10SM BKN120 M08/M11 A3029 RMK AO2 T10781110
Loading
Personal Weather Stations






























Interactive Weather Map New forecast layout! Learn more

10-Day Weather Forecast

Advertisements
Track Severe Weather on mobile